Time;durP1;ratioP1;P1;durP2;ratioP2;P2;SDS_P1;SDS_P2;PMS_P1;PMS_P2;Temp;Humidity;BMP_temperature;BMP_pressure;BME280_temperature;BME280_humidity;BME280_pressure;Samples;Min_cycle;Max_cycle;Signal;HPM_P1;HPM_P2
2021/04/15 00:00:24;;;;;;;12.02;5.65;;;;;;;0.54;100.00;96814.13;1028018;28;20110;-61
2021/04/15 00:01:05;;;;;;;9.65;5.18;;;;;;;0.59;100.00;96807.75;1024089;29;20023;-61
2021/04/15 00:01:37;;;;;;;10.25;5.97;;;;;;;0.55;100.00;96813.16;1024205;29;20027;-59
2021/04/15 00:02:09;;;;;;;11.25;5.60;;;;;;;0.59;100.00;96818.22;1036110;28;20073;-61
2021/04/15 00:02:39;;;;;;;8.35;5.40;;;;;;;0.54;100.00;96806.28;1032136;28;20046;-61
2021/04/15 00:03:15;;;;;;;7.85;5.45;;;;;;;0.54;100.00;96808.03;1028903;28;20069;-61
2021/04/15 00:03:46;;;;;;;11.50;5.43;;;;;;;0.51;100.00;96806.44;1027992;28;20030;-61
2021/04/15 00:04:17;;;;;;;11.27;5.50;;;;;;;0.56;100.00;96809.63;1024077;28;20051;-60
2021/04/15 00:04:48;;;;;;;9.98;5.75;;;;;;;0.61;100.00;96813.72;1028275;28;20564;-60
2021/04/15 00:05:27;;;;;;;10.68;5.25;;;;;;;0.64;100.00;96810.94;1036083;28;20113;-60
2021/04/15 00:06:00;;;;;;;11.20;5.30;;;;;;;0.60;100.00;96815.50;1024019;29;20048;-61
2021/04/15 00:06:31;;;;;;;9.70;5.28;;;;;;;0.64;100.00;96813.53;1028017;28;20037;-60
2021/04/15 00:07:02;;;;;;;10.73;5.53;;;;;;;0.66;100.00;96809.94;1036234;28;20021;-62
2021/04/15 00:07:32;;;;;;;10.38;5.60;;;;;;;0.60;100.00;96796.38;1024136;28;20031;-60
2021/04/15 00:08:06;;;;;;;8.68;5.55;;;;;;;0.69;100.00;96809.72;1028226;28;20243;-61
2021/04/15 00:08:36;;;;;;;9.18;5.18;;;;;;;0.69;100.00;96806.28;1036097;28;20022;-60
2021/04/15 00:09:11;;;;;;;9.57;5.20;;;;;;;0.72;100.00;96808.69;1020329;28;20454;-60
2021/04/15 00:09:42;;;;;;;10.40;5.47;;;;;;;0.72;100.00;96808.69;1024112;28;20019;-61
2021/04/15 00:10:13;;;;;;;8.82;5.28;;;;;;;0.69;100.00;96803.66;1032137;28;20444;-62
2021/04/15 00:10:46;;;;;;;10.85;5.75;;;;;;;0.72;100.00;96806.09;1028013;28;20494;-61
2021/04/15 00:11:19;;;;;;;10.95;5.75;;;;;;;0.74;100.00;96810.28;1027917;28;20109;-60
2021/04/15 00:11:50;;;;;;;8.75;5.78;;;;;;;0.70;100.00;96807.97;1016185;29;20099;-61
2021/04/15 00:12:21;;;;;;;10.95;6.20;;;;;;;0.72;100.00;96806.09;1023968;29;20023;-61
2021/04/15 00:12:51;;;;;;;11.20;5.43;;;;;;;0.74;100.00;96807.66;1024124;29;20074;-60
2021/04/15 00:13:25;;;;;;;11.02;5.82;;;;;;;0.72;100.00;96801.69;1020126;29;20529;-61
2021/04/15 00:13:57;;;;;;;10.35;5.88;;;;;;;0.73;100.00;96805.13;1023933;29;20015;-62
2021/04/15 00:14:27;;;;;;;7.50;5.22;;;;;;;0.76;100.00;96807.56;1027993;28;20110;-60
2021/04/15 00:14:58;;;;;;;9.50;5.88;;;;;;;0.78;100.00;96805.69;1032244;28;20021;-61
2021/04/15 00:15:29;;;;;;;11.05;5.38;;;;;;;0.77;100.00;96803.16;1028057;28;20046;-62
2021/04/15 00:16:00;;;;;;;12.75;6.00;;;;;;;0.69;100.00;96794.03;1032085;28;20396;-61
2021/04/15 00:16:31;;;;;;;11.23;5.60;;;;;;;0.62;100.00;96784.88;1035951;28;20022;-61
2021/04/15 00:17:02;;;;;;;9.35;5.38;;;;;;;0.70;100.00;96800.13;1024111;29;20039;-60
2021/04/15 00:17:33;;;;;;;10.77;5.68;;;;;;;0.77;100.00;96804.03;1024027;29;20019;-61
2021/04/15 00:18:05;;;;;;;11.00;5.85;;;;;;;0.74;100.00;96807.66;1024106;29;20023;-61
2021/04/15 00:18:35;;;;;;;9.70;5.45;;;;;;;0.73;100.00;96810.38;1035988;28;20155;-62
2021/04/15 00:19:07;;;;;;;10.40;5.63;;;;;;;0.73;100.00;96805.13;1028030;28;20011;-58
2021/04/15 00:19:37;;;;;;;11.65;6.18;;;;;;;0.68;100.00;96796.72;1032166;28;20065;-62
2021/04/15 00:20:09;;;;;;;9.18;5.28;;;;;;;0.68;100.00;96805.44;1032067;28;20100;-60
2021/04/15 00:20:40;;;;;;;10.27;5.28;;;;;;;0.62;100.00;96797.13;1031980;28;20114;-61
2021/04/15 00:21:11;;;;;;;11.35;5.60;;;;;;;0.60;100.00;96799.00;1028099;28;20077;-61
2021/04/15 00:21:42;;;;;;;11.40;5.40;;;;;;;0.61;100.00;96798.91;1016190;29;20043;-59
2021/04/15 00:22:13;;;;;;;12.43;5.97;;;;;;;0.65;100.00;96802.19;1032104;28;20018;-61
2021/04/15 00:22:44;;;;;;;10.40;5.50;;;;;;;0.64;100.00;96806.53;1019941;29;20427;-61
2021/04/15 00:23:15;;;;;;;14.98;6.05;;;;;;;0.63;100.00;96796.16;1028170;28;20054;-61
2021/04/15 00:23:46;;;;;;;10.85;5.93;;;;;;;0.68;100.00;96796.72;1027835;28;20109;-61
2021/04/15 00:24:17;;;;;;;9.75;5.40;;;;;;;0.69;100.00;96799.25;1024039;28;20025;-62
2021/04/15 00:24:47;;;;;;;11.60;5.68;;;;;;;0.72;100.00;96798.25;1028010;28;20021;-61
2021/04/15 00:25:18;;;;;;;10.30;5.35;;;;;;;0.75;100.00;96795.44;1024070;29;20102;-61
2021/04/15 00:25:49;;;;;;;11.15;4.90;;;;;;;0.76;100.00;96804.97;1031919;28;20018;-61
2021/04/15 00:26:21;;;;;;;7.57;5.32;;;;;;;0.72;100.00;96793.03;1027984;28;20019;-61
2021/04/15 00:26:52;;;;;;;12.63;6.22;;;;;;;0.75;100.00;96792.84;1020008;29;20028;-63
2021/04/15 00:27:22;;;;;;;12.30;5.40;;;;;;;0.75;100.00;96798.06;1027916;28;20019;-60
2021/04/15 00:27:53;;;;;;;12.57;5.85;;;;;;;0.75;100.00;96798.06;1020060;29;20026;-60
2021/04/15 00:28:24;;;;;;;9.30;5.38;;;;;;;0.69;100.00;96785.34;1032009;28;20023;-61
2021/04/15 00:28:55;;;;;;;9.88;5.68;;;;;;;0.75;100.00;96796.28;1023996;29;20015;-61
2021/04/15 00:29:26;;;;;;;11.38;5.40;;;;;;;0.75;100.00;96798.91;1023994;29;20022;-61
2021/04/15 00:29:57;;;;;;;10.10;6.03;;;;;;;0.70;100.00;96792.28;1028071;28;20014;-61
2021/04/15 00:30:27;;;;;;;14.38;5.25;;;;;;;0.68;100.00;96791.50;1024017;29;20022;-60
2021/04/15 00:30:58;;;;;;;8.15;5.57;;;;;;;0.62;100.00;96789.28;1023955;29;20120;-61
2021/04/15 00:31:29;;;;;;;8.50;5.28;;;;;;;0.58;100.00;96798.25;1019873;29;20082;-59
2021/04/15 00:32:00;;;;;;;9.98;5.47;;;;;;;0.51;100.00;96790.78;1024046;29;20033;-60
2021/04/15 00:32:31;;;;;;;10.38;5.22;;;;;;;0.49;100.00;96792.66;1024067;28;20050;-60
2021/04/15 00:33:06;;;;;;;10.90;5.20;;;;;;;0.54;100.00;96785.38;1027956;28;20018;-61
2021/04/15 00:33:36;;;;;;;10.27;5.45;;;;;;;0.60;100.00;96793.78;1023747;29;20030;-60
2021/04/15 00:34:07;;;;;;;9.98;5.80;;;;;;;0.59;100.00;96792.06;1019993;29;20024;-61
2021/04/15 00:34:38;;;;;;;11.77;5.30;;;;;;;0.58;100.00;96790.41;1020211;29;20466;-61
2021/04/15 00:35:10;;;;;;;8.75;4.90;;;;;;;0.58;100.00;96783.41;1020038;29;20051;-62
2021/04/15 00:35:40;;;;;;;11.02;5.60;;;;;;;0.50;100.00;96773.41;1016043;29;20016;-61
2021/04/15 00:36:11;;;;;;;10.65;5.40;;;;;;;0.56;100.00;96791.34;1016132;29;20443;-61
2021/04/15 00:36:44;;;;;;;11.00;5.72;;;;;;;0.55;100.00;96778.34;1027974;28;20053;-61
2021/04/15 00:37:15;;;;;;;11.50;5.60;;;;;;;0.53;100.00;96791.50;1020040;29;20034;-61
2021/04/15 00:37:47;;;;;;;10.10;5.57;;;;;;;0.51;100.00;96790.78;1028014;28;20120;-61
2021/04/15 00:38:19;;;;;;;8.80;5.38;;;;;;;0.47;100.00;96786.69;1032045;28;20034;-60
2021/04/15 00:38:49;;;;;;;10.70;6.00;;;;;;;0.43;100.00;96792.16;1027949;28;20015;-60
2021/04/15 00:39:20;;;;;;;10.35;5.00;;;;;;;0.39;100.00;96783.69;1027982;28;20026;-61
2021/04/15 00:39:51;;;;;;;10.30;5.45;;;;;;;0.23;100.00;96775.06;1024068;28;20023;-61
2021/04/15 00:40:22;;;;;;;12.70;6.07;;;;;;;0.33;100.00;96786.66;1020093;29;20087;-61
2021/04/15 00:40:54;;;;;;;9.30;5.18;;;;;;;0.33;100.00;96781.41;1031973;28;20531;-60
2021/04/15 00:41:25;;;;;;;10.75;5.68;;;;;;;0.31;100.00;96786.72;1023975;28;20011;-61
2021/04/15 00:41:55;;;;;;;11.00;5.43;;;;;;;0.29;100.00;96788.59;1031907;28;20029;-61
2021/04/15 00:42:26;;;;;;;11.68;5.32;;;;;;;0.28;100.00;96786.06;1019970;29;20024;-61
2021/04/15 00:42:57;;;;;;;10.00;5.35;;;;;;;0.25;100.00;96794.13;1028011;28;20576;-61
2021/04/15 00:43:30;;;;;;;9.63;5.57;;;;;;;0.23;100.00;96786.38;1027879;28;20019;-60
2021/04/15 00:44:01;;;;;;;10.40;5.47;;;;;;;0.22;100.00;96789.06;1023866;28;20039;-61
2021/04/15 00:44:32;;;;;;;11.55;5.45;;;;;;;0.19;100.00;96787.47;1031957;28;20025;-61
2021/04/15 00:45:13;;;;;;;11.77;5.22;;;;;;;0.09;100.00;96774.13;1023976;29;20027;-61
2021/04/15 00:45:44;;;;;;;8.30;5.38;;;;;;;0.16;100.00;96785.88;1023925;29;20502;-61
2021/04/15 00:46:27;;;;;;;12.95;5.80;;;;;;;0.12;100.00;96781.78;1028026;28;20019;-61
2021/04/15 00:47:00;;;;;;;10.38;5.55;;;;;;;0.11;100.00;96780.09;1020034;29;20040;-61
2021/04/15 00:47:31;;;;;;;11.70;6.07;;;;;;;0.10;100.00;96783.63;1036091;28;20254;-61
2021/04/15 00:48:13;;;;;;;8.77;5.25;;;;;;;0.10;100.00;96782.78;1035923;28;20104;-61
2021/04/15 00:48:43;;;;;;;10.65;5.38;;;;;;;0.06;100.00;96784.75;1031976;28;20015;-61
2021/04/15 00:49:20;;;;;;;10.13;5.25;;;;;;;0.05;100.00;96782.22;1031902;28;20476;-60
2021/04/15 00:49:53;;;;;;;9.77;5.78;;;;;;;0.02;100.00;96785.88;1023863;29;20031;-61
2021/04/15 00:50:28;;;;;;;9.10;6.07;;;;;;;-0.06;100.00;96780.25;1020076;29;20439;-61
2021/04/15 00:51:03;;;;;;;13.18;5.60;;;;;;;-0.11;100.00;96777.06;1035998;28;20045;-61
2021/04/15 00:51:40;;;;;;;12.15;5.82;;;;;;;-0.09;100.00;96785.66;1023898;29;20086;-61
2021/04/15 00:52:15;;;;;;;9.73;5.40;;;;;;;-0.13;100.00;96781.53;1019875;29;20385;-62
2021/04/15 00:52:49;;;;;;;10.30;5.90;;;;;;;-0.14;100.00;96785.06;1027916;28;20101;-60
2021/04/15 00:53:25;;;;;;;12.77;5.82;;;;;;;-0.21;100.00;96781.97;1031923;28;20062;-61
2021/04/15 00:54:09;;;;;;;10.80;6.00;;;;;;;-0.26;100.00;96778.78;1027773;28;20054;-61
2021/04/15 00:54:43;;;;;;;10.45;5.43;;;;;;;-0.23;100.00;96779.47;1023919;29;20019;-61
2021/04/15 00:55:18;;;;;;;11.30;5.45;;;;;;;-0.24;100.00;96783.00;1023887;29;20096;-60
2021/04/15 00:55:49;;;;;;;12.10;5.90;;;;;;;-0.26;100.00;96784.00;1027899;28;20480;-61
2021/04/15 00:56:19;;;;;;;9.93;6.10;;;;;;;-0.26;100.00;96779.66;1023816;29;20023;-61
2021/04/15 00:56:50;;;;;;;14.85;6.53;;;;;;;-0.27;100.00;96779.72;1023932;29;20030;-61
2021/04/15 00:57:28;;;;;;;10.50;5.75;;;;;;;-0.29;100.00;96778.97;1027896;28;20033;-61
2021/04/15 00:58:00;;;;;;;13.10;6.88;;;;;;;-0.32;100.00;96779.97;1031962;28;20038;-61
2021/04/15 00:58:31;;;;;;;13.55;5.95;;;;;;;-0.33;100.00;96787.91;1023904;28;20290;-60
2021/04/15 00:59:03;;;;;;;10.30;6.28;;;;;;;-0.35;100.00;96780.16;1027888;28;20026;-60
2021/04/15 00:59:34;;;;;;;13.95;6.15;;;;;;;-0.36;100.00;96775.06;1023954;29;20029;-61
2021/04/15 01:00:08;;;;;;;13.25;6.25;;;;;;;-0.38;100.00;96785.56;1024013;29;20485;-61
2021/04/15 01:00:39;;;;;;;13.38;6.82;;;;;;;-0.40;100.00;96776.97;1027807;28;20018;-60
2021/04/15 01:01:11;;;;;;;10.73;6.05;;;;;;;-0.42;100.00;96776.22;1019982;29;20023;-61
2021/04/15 01:01:42;;;;;;;11.77;6.30;;;;;;;-0.41;100.00;96783.13;1027940;28;20015;-59
2021/04/15 01:02:14;;;;;;;11.85;6.60;;;;;;;-0.43;100.00;96783.22;1027952;28;20015;-61
2021/04/15 01:02:45;;;;;;;9.40;5.68;;;;;;;-0.43;100.00;96782.38;1023926;29;20382;-62
2021/04/15 01:03:17;;;;;;;13.38;6.63;;;;;;;-0.46;100.00;96780.78;1027914;28;20062;-62
2021/04/15 01:03:48;;;;;;;12.35;5.93;;;;;;;-0.48;100.00;96781.81;1035823;28;20112;-62
2021/04/15 01:04:19;;;;;;;12.55;6.13;;;;;;;-0.49;100.00;96780.09;1027925;28;20455;-61
2021/04/15 01:04:52;;;;;;;11.05;5.97;;;;;;;-0.49;100.00;96787.94;1023980;29;20468;-61
2021/04/15 01:05:29;;;;;;;10.63;6.63;;;;;;;-0.52;100.00;96785.50;1035923;28;20491;-61
2021/04/15 01:06:00;;;;;;;13.20;6.10;;;;;;;-0.54;100.00;96777.78;1023911;28;20030;-60
2021/04/15 01:06:31;;;;;;;10.65;6.63;;;;;;;-0.55;100.00;96778.69;1019901;29;20084;-60
2021/04/15 01:07:02;;;;;;;18.38;6.38;;;;;;;-0.56;100.00;96777.00;1023966;29;20019;-61
2021/04/15 01:07:33;;;;;;;12.88;7.15;;;;;;;-0.55;100.00;96777.88;1031874;28;20403;-61
2021/04/15 01:08:04;;;;;;;13.88;6.55;;;;;;;-0.58;100.00;96779.69;1027922;28;20025;-60
2021/04/15 01:08:35;;;;;;;15.50;6.60;;;;;;;-0.58;100.00;96778.84;1023770;28;20109;-61
2021/04/15 01:09:06;;;;;;;15.70;7.05;;;;;;;-0.59;100.00;96779.81;1031809;28;20029;-61
2021/04/15 01:09:37;;;;;;;10.23;6.00;;;;;;;-0.62;100.00;96777.38;1031934;28;20018;-60
2021/04/15 01:10:09;;;;;;;13.13;6.30;;;;;;;-0.62;100.00;96777.38;1035894;28;20033;-60
2021/04/15 01:10:42;;;;;;;11.80;6.18;;;;;;;-0.63;100.00;96781.75;1027748;28;20023;-59
2021/04/15 01:11:31;;;;;;;11.25;6.13;;;;;;;-0.64;100.00;96776.63;1031768;28;20034;-60
2021/04/15 01:12:08;;;;;;;13.88;6.45;;;;;;;-0.67;100.00;96780.22;1038185;28;20021;-61
2021/04/15 01:12:56;;;;;;;13.38;6.75;;;;;;;-0.71;100.00;96773.50;1039791;28;20032;-61
2021/04/15 01:13:36;;;;;;;13.07;6.32;;;;;;;-0.68;100.00;96775.94;1027822;28;20027;-60
2021/04/15 01:14:19;;;;;;;10.27;5.78;;;;;;;-1.00;100.00;96731.63;1031908;28;20014;-61
2021/04/15 01:14:58;;;;;;;11.40;5.63;;;;;;;-0.73;100.00;96779.72;1027825;28;20026;-61
2021/04/15 01:15:42;;;;;;;10.85;5.60;;;;;;;-0.75;100.00;96777.19;1027893;28;20386;-61
2021/04/15 01:16:26;;;;;;;10.35;5.97;;;;;;;-0.74;100.00;96778.06;1027894;28;20516;-61
2021/04/15 01:17:08;;;;;;;12.65;6.13;;;;;;;-0.76;100.00;96781.56;1023923;29;20039;-61
2021/04/15 01:17:53;;;;;;;12.65;6.30;;;;;;;-0.78;100.00;96778.22;1031245;28;20040;-61
2021/04/15 01:18:34;;;;;;;9.23;5.90;;;;;;;-0.77;100.00;96784.25;1031925;28;20571;-61
2021/04/15 01:19:19;;;;;;;11.60;5.88;;;;;;;-0.78;100.00;96773.00;1027377;28;20019;-61
2021/04/15 01:19:59;;;;;;;11.55;6.03;;;;;;;-0.80;100.00;96779.22;1035977;28;20570;-62
2021/04/15 01:20:41;;;;;;;12.07;6.15;;;;;;;-0.82;100.00;96773.25;1027927;28;20492;-60
2021/04/15 01:21:23;;;;;;;9.70;5.90;;;;;;;-0.85;100.00;96774.28;1019789;29;20387;-61
2021/04/15 01:22:05;;;;;;;12.48;5.88;;;;;;;-0.87;100.00;96783.09;1027859;28;20500;-60
2021/04/15 01:22:46;;;;;;;11.32;6.43;;;;;;;-0.87;100.00;96777.88;1027877;28;20102;-59
2021/04/15 01:23:36;;;;;;;11.55;6.10;;;;;;;-0.88;100.00;96777.03;1031735;28;20025;-61
2021/04/15 01:24:10;;;;;;;11.60;6.05;;;;;;;-0.91;100.00;96778.97;1035910;28;20022;-61
2021/04/15 01:24:53;;;;;;;11.73;6.25;;;;;;;-0.92;100.00;96778.16;1035837;28;20079;-61
2021/04/15 01:25:30;;;;;;;11.52;5.70;;;;;;;-0.92;100.00;96774.69;1031741;28;20043;-60
2021/04/15 01:26:11;;;;;;;9.70;5.60;;;;;;;-1.15;100.00;96745.50;1031841;28;20015;-61
2021/04/15 01:26:52;;;;;;;11.60;5.40;;;;;;;-1.05;100.00;96770.13;1031884;28;20018;-61
2021/04/15 01:27:41;;;;;;;8.85;5.65;;;;;;;-0.97;100.00;96777.56;1035752;28;20089;-61
2021/04/15 01:28:21;;;;;;;9.25;4.90;;;;;;;-0.99;100.00;96782.84;1036036;28;20053;-59
2021/04/15 01:29:02;;;;;;;11.88;6.00;;;;;;;-0.98;100.00;96779.31;1035899;28;20021;-60
2021/04/15 01:29:43;;;;;;;9.35;5.03;;;;;;;-0.99;100.00;96782.84;1035739;28;20509;-60
2021/04/15 01:30:24;;;;;;;11.80;5.28;;;;;;;-1.00;100.00;96777.72;1023826;28;20019;-61
2021/04/15 01:31:06;;;;;;;11.32;5.80;;;;;;;-1.00;100.00;96783.75;1023932;28;20020;-61
2021/04/15 01:31:50;;;;;;;12.35;5.88;;;;;;;-1.02;100.00;96777.81;1023714;29;20118;-61
2021/04/15 01:32:32;;;;;;;11.32;5.50;;;;;;;-1.03;100.00;96783.97;1027839;28;20089;-60
2021/04/15 01:33:12;;;;;;;10.52;6.20;;;;;;;-1.04;100.00;96782.25;1023793;28;20031;-60
2021/04/15 01:33:48;;;;;;;12.90;5.35;;;;;;;-1.05;100.00;96777.97;1023526;29;20023;-61
2021/04/15 01:34:30;;;;;;;11.68;6.07;;;;;;;-1.05;100.00;96775.34;1027920;28;20030;-60
2021/04/15 01:35:04;;;;;;;15.30;6.03;;;;;;;-1.04;100.00;96777.06;1023792;29;20034;-61
2021/04/15 01:35:39;;;;;;;14.35;5.53;;;;;;;-1.04;100.00;96774.44;1038622;28;20029;-61
2021/04/15 01:36:15;;;;;;;12.25;5.90;;;;;;;-1.04;100.00;96777.06;1031700;28;20014;-61
2021/04/15 01:36:57;;;;;;;10.65;5.90;;;;;;;-1.05;100.00;96777.13;1023872;28;20023;-61
2021/04/15 01:37:41;;;;;;;11.05;5.47;;;;;;;-1.08;100.00;96772.94;1023868;29;20052;-61
2021/04/15 01:38:23;;;;;;;10.77;5.53;;;;;;;-1.08;100.00;96772.94;1027711;28;20033;-61
2021/04/15 01:38:57;;;;;;;13.75;5.80;;;;;;;-1.10;100.00;96771.31;1027850;28;20094;-60
2021/04/15 01:39:33;;;;;;;12.38;5.75;;;;;;;-1.10;100.00;96772.16;1023735;29;20164;-60
2021/04/15 01:40:17;;;;;;;13.65;5.75;;;;;;;-1.10;100.00;96776.53;1027712;28;20408;-59
2021/04/15 01:40:56;;;;;;;15.07;6.53;;;;;;;-1.10;100.00;96777.38;1023824;29;20375;-60
2021/04/15 01:41:32;;;;;;;12.55;5.78;;;;;;;-1.09;100.00;96773.03;1023788;29;20015;-61
2021/04/15 01:42:07;;;;;;;14.60;6.30;;;;;;;-1.10;100.00;96774.75;1031686;28;20510;-60
2021/04/15 01:42:49;;;;;;;14.40;6.00;;;;;;;-1.10;100.00;96777.38;1035725;28;20018;-60
2021/04/15 01:43:30;;;;;;;10.35;5.40;;;;;;;-1.08;100.00;96777.28;1034745;28;20109;-60
2021/04/15 01:44:03;;;;;;;10.48;5.60;;;;;;;-1.09;100.00;96778.22;1027584;28;20075;-60
2021/04/15 01:44:45;;;;;;;10.70;5.85;;;;;;;-1.07;100.00;96773.78;1027896;28;20496;-61
2021/04/15 01:45:17;;;;;;;10.82;5.60;;;;;;;-1.08;100.00;96770.34;1031310;28;20022;-61
2021/04/15 01:45:50;;;;;;;12.57;5.75;;;;;;;-1.08;100.00;96774.69;1027786;28;20015;-61
2021/04/15 01:46:23;;;;;;;10.13;5.88;;;;;;;-1.08;100.00;96772.06;1029876;28;20023;-60
2021/04/15 01:47:04;;;;;;;10.93;5.13;;;;;;;-1.11;100.00;96778.31;1031857;28;20464;-61
2021/04/15 01:47:39;;;;;;;10.68;5.18;;;;;;;-1.10;100.00;96773.94;1023841;28;20015;-60
2021/04/15 01:48:13;;;;;;;12.57;5.10;;;;;;;-1.11;100.00;96775.72;1023768;29;20017;-60
2021/04/15 01:48:50;;;;;;;8.85;4.82;;;;;;;-1.10;100.00;96773.94;1019946;29;20064;-60
2021/04/15 01:49:21;;;;;;;7.50;4.75;;;;;;;-1.12;100.00;96773.19;1024048;29;20050;-61
2021/04/15 01:49:55;;;;;;;8.35;5.43;;;;;;;-1.13;100.00;96769.75;1022218;29;20028;-62
2021/04/15 01:50:29;;;;;;;8.55;5.25;;;;;;;-1.12;100.00;96767.97;1026162;29;20023;-62
2021/04/15 01:51:17;;;;;;;8.98;5.00;;;;;;;-1.13;100.00;96774.94;1030276;28;20015;-61
2021/04/15 01:51:48;;;;;;;10.38;5.15;;;;;;;-1.11;100.00;96769.66;1030223;28;20027;-61
2021/04/15 01:52:19;;;;;;;12.50;5.43;;;;;;;-1.12;100.00;96770.56;1034843;28;20077;-62
2021/04/15 01:52:51;;;;;;;16.05;5.10;;;;;;;-1.14;100.00;96771.50;1023387;29;20087;-61
2021/04/15 01:53:33;;;;;;;10.63;5.47;;;;;;;-1.15;100.00;96777.63;1034851;28;20018;-61
2021/04/15 01:54:06;;;;;;;12.13;5.47;;;;;;;-1.28;100.00;96749.72;1030846;28;20017;-63
2021/04/15 01:54:47;;;;;;;9.55;4.95;;;;;;;-1.16;100.00;96767.28;1031084;28;20027;-62
2021/04/15 01:55:30;;;;;;;8.27;4.93;;;;;;;-1.18;100.00;96776.97;1030980;28;20034;-63
2021/04/15 01:56:10;;;;;;;8.93;4.95;;;;;;;-1.17;100.00;96770.81;1035165;28;20025;-63
2021/04/15 01:56:43;;;;;;;13.70;4.85;;;;;;;-1.17;100.00;96768.22;1028142;28;20019;-59
2021/04/15 01:57:19;;;;;;;10.90;5.53;;;;;;;-1.19;100.00;96772.66;1031718;28;20056;-61
2021/04/15 01:58:05;;;;;;;9.98;5.10;;;;;;;-1.19;100.00;96773.50;1034270;28;20029;-61
2021/04/15 01:58:39;;;;;;;9.52;4.97;;;;;;;-1.24;100.00;96759.88;1035762;28;20026;-61
2021/04/15 01:59:16;;;;;;;12.07;5.30;;;;;;;-1.17;100.00;96769.06;1031707;28;20022;-61
2021/04/15 01:59:56;;;;;;;9.20;5.18;;;;;;;-1.16;100.00;96772.50;1019836;29;20016;-61
2021/04/15 02:00:28;;;;;;;12.63;5.03;;;;;;;-1.18;100.00;96769.16;1023755;29;20034;-61
2021/04/15 02:01:02;;;;;;;15.02;4.55;;;;;;;-1.27;100.00;96754.00;1027605;28;20026;-61
2021/04/15 02:01:35;;;;;;;9.85;5.13;;;;;;;-1.18;100.00;96766.53;1019776;29;20030;-61
2021/04/15 02:02:20;;;;;;;10.90;5.10;;;;;;;-1.17;100.00;96770.81;1027707;28;20439;-60
2021/04/15 02:02:54;;;;;;;11.18;5.18;;;;;;;-1.18;100.00;96766.53;1023694;29;20028;-61
2021/04/15 02:03:28;;;;;;;11.02;5.53;;;;;;;-1.18;100.00;96767.38;1031716;28;20018;-59
2021/04/15 02:04:00;;;;;;;8.38;5.13;;;;;;;-1.19;100.00;96770.91;1035745;28;20075;-61
2021/04/15 02:04:34;;;;;;;8.80;5.25;;;;;;;-1.18;100.00;96769.16;1027738;28;20504;-60
2021/04/15 02:05:08;;;;;;;11.80;5.63;;;;;;;-1.18;100.00;96774.34;1027701;28;20026;-60
2021/04/15 02:05:40;;;;;;;11.00;5.32;;;;;;;-1.20;100.00;96764.00;1023702;28;20043;-60
2021/04/15 02:06:14;;;;;;;8.85;5.25;;;;;;;-1.26;100.00;96753.09;1025047;28;20023;-62
2021/04/15 02:06:48;;;;;;;10.32;5.53;;;;;;;-1.18;100.00;96769.97;1027716;28;20122;-60
2021/04/15 02:07:19;;;;;;;10.88;4.65;;;;;;;-1.11;100.00;96770.50;1027563;28;20499;-60
2021/04/15 02:08:00;;;;;;;10.32;5.20;;;;;;;-1.11;100.00;96774.88;1031720;28;20036;-61
2021/04/15 02:08:33;;;;;;;12.68;5.00;;;;;;;-1.11;100.00;96769.66;1027758;28;20151;-60
2021/04/15 02:09:08;;;;;;;11.18;5.60;;;;;;;-1.15;100.00;96768.97;1029516;28;20026;-60
2021/04/15 02:09:40;;;;;;;12.45;5.30;;;;;;;-1.11;100.00;96765.28;1022542;29;20398;-61
2021/04/15 02:10:12;;;;;;;11.50;5.50;;;;;;;-1.11;100.00;96772.28;1025221;28;20023;-60
2021/04/15 02:10:47;;;;;;;10.40;5.30;;;;;;;-1.12;100.00;96779.22;1024900;28;20026;-61
2021/04/15 02:11:28;;;;;;;12.30;5.80;;;;;;;-1.14;100.00;96771.50;1032712;28;20033;-61
2021/04/15 02:12:03;;;;;;;9.90;4.68;;;;;;;-1.13;100.00;96774.94;1025432;28;20041;-61
2021/04/15 02:12:35;;;;;;;9.38;5.30;;;;;;;-1.12;100.00;96768.78;1031953;28;20516;-61
2021/04/15 02:13:06;;;;;;;12.60;5.43;;;;;;;-1.12;100.00;96773.19;1031616;28;20022;-60
2021/04/15 02:13:39;;;;;;;10.45;5.43;;;;;;;-1.14;100.00;96766.28;1031448;28;20018;-59
2021/04/15 02:14:16;;;;;;;11.35;5.60;;;;;;;-1.12;100.00;96773.19;1031643;28;20029;-61
2021/04/15 02:14:59;;;;;;;10.90;5.80;;;;;;;-1.12;100.00;96768.78;1026355;28;20434;-61
2021/04/15 02:15:33;;;;;;;9.88;5.22;;;;;;;-1.11;100.00;96769.66;1031538;28;20100;-60
2021/04/15 02:16:05;;;;;;;10.73;5.13;;;;;;;-1.12;100.00;96768.78;1023679;29;20025;-61
2021/04/15 02:16:37;;;;;;;9.35;5.05;;;;;;;-1.11;100.00;96770.50;1027600;28;20177;-61
2021/04/15 02:17:09;;;;;;;10.30;4.93;;;;;;;-1.14;100.00;96762.84;1027698;28;20026;-60
2021/04/15 02:17:40;;;;;;;12.65;5.20;;;;;;;-1.12;100.00;96762.75;1031560;28;20113;-61
2021/04/15 02:18:15;;;;;;;8.35;5.07;;;;;;;-1.13;100.00;96767.13;1019860;29;20044;-61
2021/04/15 02:18:50;;;;;;;8.60;5.07;;;;;;;-1.13;100.00;96769.75;1027610;28;20076;-60
2021/04/15 02:19:27;;;;;;;11.60;5.47;;;;;;;-1.09;100.00;96770.41;1031643;28;20022;-62
2021/04/15 02:19:59;;;;;;;11.80;5.65;;;;;;;-1.10;100.00;96766.94;1023691;28;20114;-61
2021/04/15 02:20:30;;;;;;;12.88;5.63;;;;;;;-1.09;100.00;96768.63;1027639;28;20023;-61
2021/04/15 02:21:07;;;;;;;9.43;4.90;;;;;;;-1.10;100.00;96766.94;1031640;28;20037;-60
2021/04/15 02:21:45;;;;;;;12.30;5.60;;;;;;;-1.10;100.00;96766.94;1023539;28;20030;-61
2021/04/15 02:22:29;;;;;;;9.02;4.72;;;;;;;-1.10;100.00;96772.16;1027722;28;20022;-60
2021/04/15 02:23:10;;;;;;;13.52;5.65;;;;;;;-1.12;100.00;96766.19;1031518;28;20022;-61
2021/04/15 02:23:53;;;;;;;11.55;5.10;;;;;;;-1.14;100.00;96766.28;1023376;29;20350;-61
2021/04/15 02:24:38;;;;;;;9.93;5.13;;;;;;;-1.19;100.00;96765.69;1028255;28;20097;-61
2021/04/15 02:25:21;;;;;;;13.30;5.88;;;;;;;-1.17;100.00;96770.81;1027707;28;20520;-60
2021/04/15 02:26:05;;;;;;;9.82;5.63;;;;;;;-1.17;100.00;96771.69;1027574;28;20062;-61
2021/04/15 02:26:38;;;;;;;10.65;5.80;;;;;;;-1.17;100.00;96770.81;1031701;28;20029;-61
2021/04/15 02:27:15;;;;;;;10.48;5.22;;;;;;;-1.18;100.00;96766.53;1031653;28;20113;-61
2021/04/15 02:28:00;;;;;;;11.20;5.75;;;;;;;-1.20;100.00;96770.97;1031562;28;20022;-61
2021/04/15 02:28:50;;;;;;;12.10;5.10;;;;;;;-1.20;100.00;96773.56;1027678;28;20404;-60
2021/04/15 02:29:21;;;;;;;;;;;;;;;-1.21;100.00;96775.34;1020165;29;20080;-60
2021/04/15 02:29:54;;;;;;;10.00;4.75;;;;;;;-1.22;100.00;96772.81;1027613;28;20387;-61
2021/04/15 02:30:28;;;;;;;11.02;5.53;;;;;;;-1.24;100.00;96769.47;1031239;28;20065;-61
2021/04/15 02:31:09;;;;;;;13.65;5.78;;;;;;;-1.24;100.00;96767.69;1023285;28;20078;-61
2021/04/15 02:31:44;;;;;;;9.75;5.10;;;;;;;-1.24;100.00;96764.25;1035780;28;20029;-61
2021/04/15 02:32:20;;;;;;;13.85;6.82;;;;;;;-1.26;100.00;96771.31;1031564;28;20042;-61
2021/04/15 02:33:05;;;;;;;9.30;4.93;;;;;;;-1.27;100.00;96760.06;1027651;28;20026;-61
2021/04/15 02:33:46;;;;;;;14.85;5.47;;;;;;;-1.27;100.00;96769.63;1027586;28;20136;-61
2021/04/15 02:34:21;;;;;;;14.95;5.95;;;;;;;-1.27;100.00;96770.50;1035531;28;20029;-60
2021/04/15 02:35:05;;;;;;;11.48;5.13;;;;;;;-1.27;100.00;96774.84;1027550;28;20027;-60
2021/04/15 02:35:46;;;;;;;13.02;5.40;;;;;;;-1.28;100.00;96771.41;1027624;28;20023;-61
2021/04/15 02:36:17;;;;;;;13.38;5.35;;;;;;;-1.28;100.00;96770.56;1023562;28;20042;-61
2021/04/15 02:36:53;;;;;;;13.02;5.15;;;;;;;-1.30;100.00;96769.81;1027625;28;20050;-61
2021/04/15 02:37:31;;;;;;;8.88;4.65;;;;;;;-1.32;100.00;96772.50;1027527;28;20023;-61
2021/04/15 02:38:02;;;;;;;9.13;5.05;;;;;;;-1.35;100.00;96778.69;1031545;28;20022;-61
2021/04/15 02:38:39;;;;;;;11.80;5.13;;;;;;;-1.37;100.00;96770.13;1019569;28;20088;-61
2021/04/15 02:39:13;;;;;;;8.27;4.90;;;;;;;-1.34;100.00;96780.38;1019742;29;20526;-61
2021/04/15 02:39:47;;;;;;;11.52;5.40;;;;;;;-1.35;100.00;96781.31;1027566;28;20027;-62
2021/04/15 02:40:22;;;;;;;10.10;4.57;;;;;;;-1.35;100.00;96776.09;1023503;29;20026;-61
2021/04/15 02:40:56;;;;;;;13.13;5.07;;;;;;;-1.34;100.00;96775.19;1021271;29;20041;-61
2021/04/15 02:41:29;;;;;;;10.05;4.88;;;;;;;-1.34;100.00;96780.38;1025204;28;20099;-61
2021/04/15 02:42:03;;;;;;;11.13;5.78;;;;;;;-1.33;100.00;96781.22;1027640;28;20019;-62
2021/04/15 02:42:36;;;;;;;14.55;5.43;;;;;;;-1.33;100.00;96776.00;1023365;29;20023;-61